Nearby METAR Reports

 

KMLP - Mullan Pass, Idaho, USA
Distance from station: NE 41mi, 66km
Updated: Mon, 30-Jan-2023 5:53pm PST
Mostly Cloudy
Mostly Cloudy
 Wind from varies
Wind: varies 3 mph , 6 km/h
Temperature: -0°F , -18°C
Dew Point: -4°F , -20°C
Humidity: 84%
Barometer: 30.04 inHg , 1017.3 hPa
Clouds: Mostly Cloudy
Visibility: 10 miles , 16 km
Cloud details: Mostly Cloudy 4800 ft
2023/01/31 01:53 KMLP 310153Z AUTO VRB03KT 10SM BKN048 M18/M20 A3004 RMK AO2 SLP300 T11781200
KPUW - Pullman/Moscow, Washington, USA
Distance from station: SW 42mi, 68km
Updated: Mon, 30-Jan-2023 5:53pm PST
Mostly Cloudy
Mostly Cloudy
 Wind from E
Wind: E 9 mph , 15 km/h
Temperature: 18°F , -8°C
Wind Chill: 7°F , -14°C
Dew Point: 1°F , -17°C
Humidity: 49%
Barometer: 30.35 inHg , 1027.8 hPa
Clouds: Mostly Cloudy
Visibility: 10 miles , 16 km
Cloud details: Mostly Cloudy 10000 ft
2023/01/31 01:53 KPUW 310153Z AUTO 10008KT 10SM BKN100 M08/M17 A3035 RMK AO2 SLP325 T10831167
 
KCOE - Coeur D'alene, Idaho, USA
Distance from station: NNW 49mi, 79km
Updated: Mon, 30-Jan-2023 5:56pm PST
Clear
Clear
 Wind from S
Wind: S 6 mph , 9 km/h
Temperature: 18°F , -8°C
Wind Chill: 10°F , -12°C
Dew Point: 7°F , -14°C
Humidity: 62%
Barometer: 30.33 inHg , 1027.1 hPa
Clouds: Clear
Visibility: 10 miles , 16 km
2023/01/31 01:56 KCOE 310156Z AUTO 18005KT 10SM CLR M08/M14 A3033 RMK AO2 SLP335 T10781139 FZRANO PNO $
KSFF - Spokane/Felts, Washington, USA
Distance from station: NW 59mi, 94km
Updated: Mon, 30-Jan-2023 5:53pm PST
Few Clouds
Few Clouds
 Wind from S
Wind: S 6 mph , 9 km/h
Temperature: 23°F , -5°C
Wind Chill: 16°F , -9°C
Dew Point: 7°F , -14°C
Humidity: 50%
Barometer: 30.35 inHg , 1027.8 hPa
Clouds: Few Clouds
Visibility: 10 miles , 16 km
Cloud details: Few Clouds 9000 ft
2023/01/31 01:53 KSFF 310153Z 17005KT 10SM FEW090 M05/M14 A3035 RMK AO2 SLP312 T10501139
 
KLWS - Lewiston, Idaho, USA
Distance from station: SSW 59mi, 96km
Updated: Mon, 30-Jan-2023 5:56pm PST
Mostly Cloudy
Mostly Cloudy
 Wind from calm
Wind: Calm
Temperature: 21°F , -6°C
Dew Point: 7°F , -14°C
Humidity: 54%
Barometer: 30.42 inHg , 1030.1 hPa
Clouds: Mostly Cloudy
Visibility: 10 miles , 16 km
Cloud details: Mostly Cloudy 11000 ft
2023/01/31 01:56 KLWS 310156Z 00000KT 10SM BKN110 M06/M14 A3042 RMK AO2 SLP326 T10611144
KGEG - Spokane/Metro, Washington, USA
Distance from station: WNW 64mi, 103km
Updated: Mon, 30-Jan-2023 5:53pm PST
Overcast
Overcast
 Wind from SSE
Wind: SSE 5 mph , 7 km/h
Temperature: 19°F , -7°C
Wind Chill: 12°F , -11°C
Dew Point: 5°F , -15°C
Humidity: 53%
Barometer: 30.31 inHg , 1026.4 hPa
Clouds: Overcast
Visibility: 10 miles , 16 km
Cloud details: Mostly Cloudy 10000 ft
Overcast 22000 ft
2023/01/31 01:53 KGEG 310153Z 16004KT 10SM BKN100 OVC220 M07/M15 A3031 RMK AO2 SLP307 T10671150
 
KSKA - Fairchild Afb, Washington, USA
Distance from station: WNW 68mi, 110km
Updated: Mon, 30-Jan-2023 5:55pm PST
Partly Cloudy
Partly Cloudy
 Wind from S
Wind: S 5 mph , 7 km/h
Temperature: 18°F , -8°C
Wind Chill: 11°F , -12°C
Dew Point: -2°F , -19°C
Humidity: 41%
Barometer: 30.29 inHg , 1025.7 hPa
Clouds: Partly Cloudy
Visibility: 10 miles , 16 km
Cloud details: Partly Cloudy 8500 ft
2023/01/31 01:55 KSKA 310155Z 19004KT 10SM SCT085 M08/M19 A3029 RMK AO2A SLP310 T10761186 $